createdAt,value
2018-05-23T00:00:10.340Z,12.82
2018-05-23T00:01:10.321Z,12.82
2018-05-23T00:02:10.313Z,12.71
2018-05-23T00:03:10.295Z,12.70
2018-05-23T00:04:10.273Z,12.77
2018-05-23T00:05:10.263Z,12.71
2018-05-23T00:06:10.250Z,12.85
2018-05-23T00:07:10.244Z,12.77
2018-05-23T00:08:10.209Z,12.78
2018-05-23T00:09:10.213Z,12.74
2018-05-23T00:10:10.183Z,12.74
2018-05-23T00:11:10.167Z,12.64
2018-05-23T00:12:10.165Z,12.67
2018-05-23T00:13:10.139Z,12.60
2018-05-23T00:14:10.114Z,12.52
2018-05-23T00:15:10.100Z,12.54
2018-05-23T00:16:10.109Z,12.56
2018-05-23T00:17:10.090Z,12.56
2018-05-23T00:18:10.069Z,12.52
2018-05-23T00:19:10.049Z,12.44
2018-05-23T00:20:10.465Z,12.42
2018-05-23T00:21:10.015Z,12.44
2018-05-23T00:22:10.002Z,12.39
2018-05-23T00:23:09.996Z,12.27
2018-05-23T00:24:09.967Z,12.48
2018-05-23T00:25:09.954Z,12.44
2018-05-23T00:26:09.996Z,12.49
2018-05-23T00:27:09.938Z,12.67
2018-05-23T00:28:09.896Z,12.67
2018-05-23T00:29:09.906Z,12.74
2018-05-23T00:30:09.884Z,12.79
2018-05-23T00:31:09.852Z,12.67
2018-05-23T00:32:09.848Z,12.67
2018-05-23T00:33:09.832Z,12.63
2018-05-23T00:34:09.817Z,12.64
2018-05-23T00:35:09.794Z,12.64
2018-05-23T00:36:09.791Z,12.66
2018-05-23T00:37:09.765Z,12.57
2018-05-23T00:38:09.750Z,12.69
2018-05-23T00:39:09.728Z,12.56
2018-05-23T00:40:09.724Z,12.66
2018-05-23T00:41:09.696Z,12.67
2018-05-23T00:42:09.686Z,12.66
2018-05-23T00:43:09.674Z,12.67
2018-05-23T00:44:09.651Z,12.62
2018-05-23T00:45:09.648Z,12.64
2018-05-23T00:46:09.608Z,12.70
2018-05-23T00:47:09.588Z,12.74
2018-05-23T00:48:09.573Z,12.77
2018-05-23T00:49:09.553Z,12.79
2018-05-23T00:50:09.561Z,12.70
2018-05-23T00:51:09.559Z,12.74
2018-05-23T00:52:09.531Z,12.77
2018-05-23T00:53:09.512Z,12.75
2018-05-23T00:54:09.509Z,12.88
2018-05-23T00:55:09.496Z,12.85
2018-05-23T00:56:09.470Z,12.84
2018-05-23T00:57:09.462Z,12.79
2018-05-23T00:58:09.432Z,12.82
2018-05-23T00:59:09.423Z,12.89
2018-05-23T01:00:09.414Z,12.87
2018-05-23T01:01:09.384Z,12.84
2018-05-23T01:02:09.378Z,12.87
2018-05-23T01:03:09.350Z,12.87
2018-05-23T01:04:09.343Z,12.85
2018-05-23T01:05:09.332Z,12.88
2018-05-23T01:06:09.327Z,12.85
2018-05-23T01:07:09.308Z,12.85
2018-05-23T01:08:09.280Z,12.88
2018-05-23T01:09:09.264Z,12.85
2018-05-23T01:10:09.251Z,12.85
2018-05-23T01:11:09.235Z,12.87
2018-05-23T01:12:09.228Z,12.79
2018-05-23T01:13:09.218Z,12.84
2018-05-23T01:14:09.193Z,12.87
2018-05-23T01:15:09.182Z,12.82
2018-05-23T01:16:09.170Z,12.85
2018-05-23T01:17:09.148Z,12.88
2018-05-23T01:18:09.154Z,12.96
2018-05-23T01:19:09.112Z,12.96
2018-05-23T01:20:09.098Z,12.93
2018-05-23T01:21:09.074Z,12.81
2018-05-23T01:22:09.075Z,12.96
2018-05-23T01:23:09.064Z,12.85
2018-05-23T01:24:09.050Z,12.92
2018-05-23T01:25:09.015Z,12.92
2018-05-23T01:26:09.006Z,12.89
2018-05-23T01:27:08.996Z,12.92
2018-05-23T01:28:08.989Z,12.99
2018-05-23T01:29:08.975Z,13.03
2018-05-23T01:30:08.938Z,13.04
2018-05-23T01:31:08.957Z,13.06
2018-05-23T01:32:08.917Z,13.04
2018-05-23T01:33:08.906Z,13.06
2018-05-23T01:34:08.887Z,13.11
2018-05-23T01:35:08.954Z,13.11
2018-05-23T01:36:08.849Z,13.09
2018-05-23T01:37:08.846Z,13.04
2018-05-23T01:38:08.823Z,13.11
2018-05-23T01:39:08.810Z,13.09
2018-05-23T01:40:08.806Z,13.09
2018-05-23T01:41:08.781Z,13.07
2018-05-23T01:42:08.775Z,13.11
2018-05-23T01:43:08.759Z,13.09
2018-05-23T01:44:08.728Z,13.04
2018-05-23T01:45:08.711Z,13.09
2018-05-23T01:46:08.712Z,13.09
2018-05-23T01:47:08.701Z,13.03
2018-05-23T01:48:08.669Z,13.03
2018-05-23T01:49:08.669Z,13.11
2018-05-23T01:50:08.650Z,13.12
2018-05-23T01:51:08.624Z,13.03
2018-05-23T01:52:08.612Z,13.25
2018-05-23T01:53:08.604Z,13.17
2018-05-23T01:54:08.576Z,13.12
2018-05-23T01:55:08.576Z,13.20
2018-05-23T01:56:08.557Z,13.21
2018-05-23T01:57:08.529Z,13.17
2018-05-23T01:58:08.516Z,13.21
2018-05-23T01:59:08.500Z,13.15
2018-05-23T02:00:08.497Z,13.22
2018-05-23T02:01:08.485Z,13.20
2018-05-23T02:02:08.468Z,13.07
2018-05-23T02:03:08.448Z,13.12
2018-05-23T02:04:08.439Z,13.03
2018-05-23T02:05:08.425Z,13.07
2018-05-23T02:06:08.409Z,13.06
2018-05-23T02:07:08.390Z,13.02
2018-05-23T02:08:08.361Z,13.03
2018-05-23T02:09:08.358Z,13.07
2018-05-23T02:10:08.333Z,12.97
2018-05-23T02:11:08.324Z,13.03
2018-05-23T02:12:08.310Z,13.03
2018-05-23T02:13:08.294Z,12.88
2018-05-23T02:14:08.461Z,13.02
2018-05-23T02:15:08.267Z,12.99
2018-05-23T02:16:08.252Z,12.99
2018-05-23T02:17:08.240Z,12.97
2018-05-23T02:18:08.229Z,13.00
2018-05-23T02:19:08.202Z,13.00
2018-05-23T02:20:08.176Z,13.03
2018-05-23T02:21:08.167Z,13.11
2018-05-23T02:22:08.157Z,13.12
2018-05-23T02:23:08.142Z,13.18
2018-05-23T02:24:08.141Z,13.20
2018-05-23T02:25:08.106Z,13.21
2018-05-23T02:26:08.094Z,13.24
2018-05-23T02:27:08.075Z,13.22
2018-05-23T02:28:08.068Z,13.14
2018-05-23T02:29:08.055Z,13.18
2018-05-23T02:30:08.033Z,13.07
2018-05-23T02:31:08.008Z,13.15
2018-05-23T02:32:07.998Z,13.15
2018-05-23T02:33:07.987Z,13.11
2018-05-23T02:34:07.985Z,13.21
2018-05-23T02:35:07.962Z,13.12
2018-05-23T02:36:07.964Z,13.22
2018-05-23T02:37:07.937Z,13.22
2018-05-23T02:38:07.921Z,13.27
2018-05-23T02:39:07.902Z,13.27
2018-05-23T02:40:07.899Z,13.22
2018-05-23T02:41:07.867Z,13.27
2018-05-23T02:42:07.857Z,13.25
2018-05-23T02:43:07.851Z,13.27
2018-05-23T02:44:07.832Z,13.32
2018-05-23T02:45:07.817Z,13.40
2018-05-23T02:46:07.803Z,13.33
2018-05-23T02:47:07.784Z,13.37
2018-05-23T02:48:07.765Z,13.30
2018-05-23T02:49:07.751Z,13.37
2018-05-23T02:50:07.741Z,13.36
2018-05-23T02:51:07.724Z,13.38
2018-05-23T02:52:07.694Z,13.32
2018-05-23T02:53:07.678Z,13.37
2018-05-23T02:54:07.673Z,13.32
2018-05-23T02:55:07.659Z,13.32
2018-05-23T02:56:07.659Z,13.38
2018-05-23T02:57:07.634Z,13.37
2018-05-23T02:58:07.621Z,13.37
2018-05-23T02:59:07.637Z,13.37
2018-05-23T03:00:07.592Z,13.33
2018-05-23T03:01:07.564Z,13.47
2018-05-23T03:02:07.561Z,13.40
2018-05-23T03:03:07.654Z,13.46
2018-05-23T03:04:07.534Z,13.44
2018-05-23T03:05:07.519Z,13.51
2018-05-23T03:06:07.487Z,13.47
2018-05-23T03:07:07.490Z,13.49
2018-05-23T03:08:07.455Z,13.51
2018-05-23T03:09:07.445Z,13.49
2018-05-23T03:10:07.439Z,13.44
2018-05-23T03:11:07.408Z,13.51
2018-05-23T03:12:07.411Z,13.51
2018-05-23T03:13:07.401Z,13.52
2018-05-23T03:14:07.383Z,13.59
2018-05-23T03:15:07.370Z,13.56
2018-05-23T03:16:07.351Z,13.55
2018-05-23T03:17:07.325Z,13.52
2018-05-23T03:18:07.315Z,13.59
2018-05-23T03:19:07.312Z,13.61
2018-05-23T03:20:07.296Z,13.58
2018-05-23T03:21:07.273Z,13.58
2018-05-23T03:22:07.289Z,13.67
2018-05-23T03:23:07.237Z,13.69
2018-05-23T03:24:07.232Z,13.73
2018-05-23T03:25:07.221Z,13.67
2018-05-23T03:26:07.202Z,13.69
2018-05-23T03:27:07.192Z,13.69
2018-05-23T03:28:07.221Z,13.71
2018-05-23T03:29:07.157Z,13.77
2018-05-23T03:30:07.135Z,13.74
2018-05-23T03:31:07.126Z,13.81
2018-05-23T03:32:07.113Z,13.81
2018-05-23T03:33:07.093Z,13.76
2018-05-23T03:34:07.065Z,13.81
2018-05-23T03:35:07.065Z,13.71
2018-05-23T03:36:07.055Z,13.76
2018-05-23T03:37:07.024Z,13.80
2018-05-23T03:38:07.015Z,13.76
2018-05-23T03:39:07.009Z,13.76
2018-05-23T03:40:06.992Z,13.81
2018-05-23T03:41:06.970Z,13.81
2018-05-23T03:42:06.964Z,13.81
2018-05-23T03:43:06.934Z,13.80
2018-05-23T03:44:06.922Z,13.81
2018-05-23T03:45:06.916Z,13.87
2018-05-23T03:46:06.900Z,13.76
2018-05-23T03:47:06.871Z,13.88
2018-05-23T03:48:06.861Z,13.83
2018-05-23T03:49:06.848Z,13.92
2018-05-23T03:50:06.836Z,13.91
2018-05-23T03:51:06.825Z,13.92
2018-05-23T03:52:06.787Z,13.98
2018-05-23T03:53:06.771Z,13.92
2018-05-23T03:54:06.756Z,13.95
2018-05-23T03:55:06.741Z,13.98
2018-05-23T03:56:06.725Z,13.96
2018-05-23T03:57:06.713Z,13.95
2018-05-23T03:58:06.694Z,13.94
2018-05-23T03:59:06.682Z,13.95
2018-05-23T04:00:06.668Z,13.99
2018-05-23T04:01:06.655Z,13.96
2018-05-23T04:02:06.638Z,13.87
2018-05-23T04:03:06.622Z,14.01
2018-05-23T04:04:06.609Z,14.09
2018-05-23T04:05:06.597Z,13.99
2018-05-23T04:06:06.575Z,13.96
2018-05-23T04:07:06.555Z,13.96
2018-05-23T04:08:06.545Z,14.01
2018-05-23T04:09:06.529Z,14.06
2018-05-23T04:10:06.513Z,14.01
2018-05-23T04:11:06.580Z,14.12
2018-05-23T04:12:06.526Z,14.07
2018-05-23T04:13:06.501Z,14.07
2018-05-23T04:14:06.459Z,14.13
2018-05-23T04:15:06.462Z,14.14
2018-05-23T04:16:06.450Z,14.14
2018-05-23T04:17:06.433Z,14.16
2018-05-23T04:18:06.415Z,14.14
2018-05-23T04:19:06.392Z,14.24
2018-05-23T04:20:06.425Z,14.20
2018-05-23T04:21:06.504Z,14.20
2018-05-23T04:22:06.351Z,14.28
2018-05-23T04:23:06.337Z,14.27
2018-05-23T04:24:06.389Z,14.32
2018-05-23T04:25:06.299Z,14.32
2018-05-23T04:26:06.279Z,14.31
2018-05-23T04:27:06.273Z,14.31
2018-05-23T04:28:06.260Z,14.42
2018-05-23T04:29:06.241Z,14.44
2018-05-23T04:30:06.231Z,14.38
2018-05-23T04:31:06.219Z,14.56
2018-05-23T04:32:06.200Z,14.53
2018-05-23T04:33:06.180Z,14.52
2018-05-23T04:34:06.175Z,14.47
2018-05-23T04:35:06.155Z,14.44
2018-05-23T04:36:06.142Z,14.54
2018-05-23T04:37:06.126Z,14.50
2018-05-23T04:38:06.112Z,14.50
2018-05-23T04:39:06.097Z,14.54
2018-05-23T04:40:06.080Z,14.53
2018-05-23T04:41:06.071Z,14.52
2018-05-23T04:42:06.055Z,14.57
2018-05-23T04:43:06.029Z,14.50
2018-05-23T04:44:06.025Z,14.53
2018-05-23T04:45:06.020Z,14.57
2018-05-23T04:46:05.994Z,14.61
2018-05-23T04:47:05.987Z,14.52
2018-05-23T04:48:05.978Z,14.65
2018-05-23T04:49:05.956Z,14.61
2018-05-23T04:50:05.936Z,14.60
2018-05-23T04:51:05.920Z,14.57
2018-05-23T04:52:05.914Z,14.62
2018-05-23T04:53:05.898Z,14.64
2018-05-23T04:54:05.879Z,14.67
2018-05-23T04:55:05.870Z,14.64
2018-05-23T04:56:05.860Z,14.69
2018-05-23T04:57:05.843Z,14.64
2018-05-23T04:58:05.822Z,14.67
2018-05-23T04:59:05.813Z,14.71
2018-05-23T05:00:05.800Z,14.78
2018-05-23T05:01:05.785Z,14.84
2018-05-23T05:02:05.768Z,14.84
2018-05-23T05:03:05.756Z,14.86
2018-05-23T05:04:05.751Z,14.88
2018-05-23T05:05:05.729Z,14.88
2018-05-23T05:06:05.724Z,14.84
2018-05-23T05:07:05.698Z,14.91
2018-05-23T05:08:05.689Z,14.83
2018-05-23T05:09:05.669Z,14.83
2018-05-23T05:10:05.729Z,14.91
2018-05-23T05:11:05.641Z,14.93
2018-05-23T05:12:05.629Z,14.99
2018-05-23T05:13:05.620Z,15.08
2018-05-23T05:14:05.702Z,15.01
2018-05-23T05:15:05.596Z,15.09
2018-05-23T05:16:05.573Z,15.05
2018-05-23T05:17:05.568Z,15.11
2018-05-23T05:18:05.542Z,15.24
2018-05-23T05:19:05.534Z,15.23
2018-05-23T05:20:05.520Z,15.26
2018-05-23T05:21:05.503Z,15.26
2018-05-23T05:22:05.484Z,15.27
2018-05-23T05:23:05.481Z,15.35
2018-05-23T05:24:05.465Z,15.31
2018-05-23T05:25:05.452Z,15.42
2018-05-23T05:26:05.440Z,15.48
2018-05-23T05:27:05.424Z,15.46
2018-05-23T05:28:05.408Z,15.45
2018-05-23T05:29:05.395Z,15.59
2018-05-23T05:30:05.373Z,15.57
2018-05-23T05:31:05.369Z,15.59
2018-05-23T05:32:05.357Z,15.64
2018-05-23T05:33:05.341Z,15.72
2018-05-23T05:34:05.328Z,15.82
2018-05-23T05:35:05.318Z,15.81
2018-05-23T05:36:05.305Z,15.79
2018-05-23T05:37:05.290Z,15.88
2018-05-23T05:38:05.280Z,15.88
2018-05-23T05:39:05.267Z,15.94
2018-05-23T05:40:05.276Z,16.06
2018-05-23T05:41:05.241Z,16.01
2018-05-23T05:42:05.223Z,16.06
2018-05-23T05:43:05.216Z,16.14
2018-05-23T05:44:05.197Z,16.23
2018-05-23T05:45:05.184Z,16.22
2018-05-23T05:46:05.172Z,16.22
2018-05-23T05:47:05.170Z,16.27
2018-05-23T05:48:05.156Z,16.31
2018-05-23T05:49:05.135Z,16.37
2018-05-23T05:50:05.127Z,16.37
2018-05-23T05:51:05.119Z,16.30
2018-05-23T05:52:05.097Z,16.41
2018-05-23T05:53:05.082Z,16.38
2018-05-23T05:54:05.072Z,16.41
2018-05-23T05:55:05.057Z,16.49
2018-05-23T05:56:05.060Z,16.42
2018-05-23T05:57:05.057Z,16.45
2018-05-23T05:58:05.022Z,16.45
2018-05-23T05:59:05.022Z,16.44
2018-05-23T06:00:05.016Z,16.56
2018-05-23T06:01:05.019Z,16.55
2018-05-23T06:02:05.050Z,16.62
2018-05-23T06:03:04.959Z,16.71
2018-05-23T06:04:04.949Z,16.71
2018-05-23T06:05:04.932Z,16.78
2018-05-23T06:06:04.936Z,16.75
2018-05-23T06:07:04.923Z,16.85
2018-05-23T06:08:04.897Z,16.92
2018-05-23T06:09:04.885Z,16.93
2018-05-23T06:10:04.868Z,16.96
2018-05-23T06:11:04.865Z,17.04
2018-05-23T06:12:04.869Z,17.04
2018-05-23T06:13:04.843Z,17.04
2018-05-23T06:14:04.833Z,16.92
2018-05-23T06:15:04.813Z,16.83
2018-05-23T06:16:04.810Z,16.92
2018-05-23T06:17:04.790Z,16.92
2018-05-23T06:18:04.782Z,17.03
2018-05-23T06:19:04.762Z,17.00
2018-05-23T06:20:04.755Z,17.06
2018-05-23T06:21:04.746Z,17.14
2018-05-23T06:22:04.730Z,17.22
2018-05-23T06:23:04.727Z,17.29
2018-05-23T06:24:04.711Z,17.32
2018-05-23T06:25:04.701Z,17.29
2018-05-23T06:26:04.682Z,17.26
2018-05-23T06:27:04.673Z,17.25
2018-05-23T06:28:04.660Z,17.35
2018-05-23T06:29:04.650Z,17.17
2018-05-23T06:30:04.634Z,17.10
2018-05-23T06:31:04.632Z,17.08
2018-05-23T06:32:04.616Z,16.92
2018-05-23T06:33:04.620Z,16.95
2018-05-23T06:34:04.603Z,16.88
2018-05-23T06:35:04.581Z,16.89
2018-05-23T06:36:04.567Z,16.96
2018-05-23T06:37:04.565Z,17.00
2018-05-23T06:38:04.543Z,17.03
2018-05-23T06:39:04.546Z,17.06
2018-05-23T06:40:04.521Z,17.06
2018-05-23T06:41:04.510Z,16.95
2018-05-23T06:42:04.498Z,16.88
2018-05-23T06:43:04.487Z,16.92
2018-05-23T06:44:04.478Z,16.96
2018-05-23T06:45:04.462Z,17.07
2018-05-23T06:46:04.450Z,17.07
2018-05-23T06:47:04.434Z,16.99
2018-05-23T06:48:04.433Z,16.98
2018-05-23T06:49:04.417Z,16.90
2018-05-23T06:50:04.467Z,16.90
2018-05-23T06:51:04.395Z,16.98
2018-05-23T06:52:04.384Z,17.06
2018-05-23T06:53:04.375Z,17.04
2018-05-23T06:54:04.359Z,17.03
2018-05-23T06:55:04.354Z,17.03
2018-05-23T06:56:04.333Z,17.04
2018-05-23T06:57:04.321Z,17.00
2018-05-23T06:58:04.307Z,17.03
2018-05-23T06:59:04.304Z,17.04
2018-05-23T07:00:04.288Z,17.03
2018-05-23T07:01:04.292Z,17.10
2018-05-23T07:02:04.265Z,17.15
2018-05-23T07:03:04.261Z,17.17
2018-05-23T07:04:04.241Z,17.13
2018-05-23T07:05:04.235Z,17.28
2018-05-23T07:06:04.241Z,17.41
2018-05-23T07:07:04.210Z,17.44
2018-05-23T07:08:04.201Z,17.53
2018-05-23T07:09:04.191Z,17.66
2018-05-23T07:10:04.177Z,17.63
2018-05-23T07:11:04.226Z,17.66
2018-05-23T07:12:04.175Z,17.59
2018-05-23T07:13:04.144Z,17.70
2018-05-23T07:14:04.137Z,17.89
2018-05-23T07:15:04.121Z,17.94
2018-05-23T07:16:04.115Z,18.13
2018-05-23T07:17:04.108Z,18.37
2018-05-23T07:18:04.157Z,18.42
2018-05-23T07:19:04.080Z,18.65
2018-05-23T07:20:04.069Z,18.80
2018-05-23T07:21:04.057Z,18.99
2018-05-23T07:22:04.044Z,19.06
2018-05-23T07:23:04.032Z,19.06
2018-05-23T07:24:04.093Z,19.21
2018-05-23T07:25:04.018Z,19.29
2018-05-23T07:26:04.006Z,19.32
2018-05-23T07:27:03.993Z,19.13
2018-05-23T07:28:04.033Z,18.99
2018-05-23T07:29:03.984Z,18.99
2018-05-23T07:30:03.964Z,18.99
2018-05-23T07:31:03.961Z,18.94
2018-05-23T07:32:03.947Z,18.98
2018-05-23T07:33:03.938Z,19.15
2018-05-23T07:34:03.929Z,19.15
2018-05-23T07:35:03.919Z,19.47
2018-05-23T07:36:03.910Z,19.51
2018-05-23T07:37:03.910Z,19.68
2018-05-23T07:38:03.897Z,20.00
2018-05-23T07:39:03.881Z,20.18
2018-05-23T07:40:03.875Z,20.20
2018-05-23T07:41:03.862Z,20.05
2018-05-23T07:42:03.859Z,19.78
2018-05-23T07:43:03.853Z,19.69
2018-05-23T07:44:03.839Z,19.72
2018-05-23T07:45:03.839Z,19.87
2018-05-23T07:46:03.826Z,19.94
2018-05-23T07:47:03.812Z,20.05
2018-05-23T07:48:03.818Z,20.13
2018-05-23T07:49:03.800Z,19.90
2018-05-23T07:50:03.792Z,19.95
2018-05-23T07:51:03.784Z,20.03
2018-05-23T07:52:03.774Z,20.02
2018-05-23T07:53:03.768Z,20.02
2018-05-23T07:54:03.761Z,20.00
2018-05-23T07:55:03.750Z,20.23
2018-05-23T07:56:03.739Z,20.00
2018-05-23T07:57:03.730Z,20.05
2018-05-23T07:58:03.721Z,19.95
2018-05-23T07:59:03.724Z,20.05
2018-05-23T08:00:03.711Z,20.12
2018-05-23T08:01:03.698Z,20.03
2018-05-23T08:02:03.694Z,19.93
2018-05-23T08:03:03.689Z,19.78
2018-05-23T08:04:03.682Z,19.76
2018-05-23T08:05:03.673Z,19.80
2018-05-23T08:06:03.657Z,19.72
2018-05-23T08:07:03.660Z,19.76
2018-05-23T08:08:03.644Z,19.68
2018-05-23T08:09:03.635Z,19.87
2018-05-23T08:10:03.630Z,19.88
2018-05-23T08:11:03.630Z,19.87
2018-05-23T08:12:03.629Z,19.95
2018-05-23T08:13:03.601Z,20.00
2018-05-23T08:14:03.598Z,20.00
2018-05-23T08:15:03.592Z,19.98
2018-05-23T08:16:03.582Z,20.05
2018-05-23T08:17:03.578Z,19.93
2018-05-23T08:18:03.579Z,19.88
2018-05-23T08:19:03.557Z,19.65
2018-05-23T08:20:03.547Z,19.51
2018-05-23T08:21:03.538Z,19.70
2018-05-23T08:22:03.529Z,19.79
2018-05-23T08:23:03.525Z,19.88
2018-05-23T08:24:03.512Z,19.91
2018-05-23T08:25:03.513Z,20.18
2018-05-23T08:26:03.499Z,20.28
2018-05-23T08:27:03.491Z,20.38
2018-05-23T08:28:03.483Z,20.24
2018-05-23T08:29:03.470Z,20.34
2018-05-23T08:30:03.462Z,20.51
2018-05-23T08:31:03.461Z,20.51
2018-05-23T08:32:03.452Z,20.59
2018-05-23T08:33:03.438Z,20.59
2018-05-23T08:34:03.435Z,20.68
2018-05-23T08:35:03.431Z,20.71
2018-05-23T08:36:03.418Z,20.61
2018-05-23T08:37:03.415Z,20.51
2018-05-23T08:38:03.405Z,20.76
2018-05-23T08:39:03.395Z,20.90
2018-05-23T08:40:03.411Z,20.81
2018-05-23T08:41:03.381Z,20.80
2018-05-23T08:42:03.370Z,21.05
2018-05-23T08:43:03.363Z,21.05
2018-05-23T08:44:03.360Z,21.21
2018-05-23T08:45:03.349Z,21.20
2018-05-23T08:46:03.355Z,21.13
2018-05-23T08:47:03.334Z,21.20
2018-05-23T08:48:03.321Z,21.23
2018-05-23T08:49:03.325Z,21.38
2018-05-23T08:50:03.312Z,21.46
2018-05-23T08:51:03.303Z,21.30
2018-05-23T08:52:03.299Z,21.48
2018-05-23T08:53:03.293Z,21.69
2018-05-23T08:54:03.286Z,21.98
2018-05-23T08:55:03.277Z,21.91
2018-05-23T08:56:03.273Z,21.76
2018-05-23T08:57:03.267Z,21.94
2018-05-23T08:58:03.257Z,22.20
2018-05-23T08:59:03.254Z,22.29
2018-05-23T09:00:03.251Z,22.39
2018-05-23T09:01:03.239Z,22.59
2018-05-23T09:02:03.235Z,22.82
2018-05-23T09:03:03.248Z,22.90
2018-05-23T09:04:03.222Z,22.50
2018-05-23T09:05:03.318Z,22.22
2018-05-23T09:06:03.206Z,22.80
2018-05-23T09:07:03.201Z,22.80
2018-05-23T09:08:03.203Z,22.89
2018-05-23T09:09:03.200Z,22.96
2018-05-23T09:10:03.197Z,23.35
2018-05-23T09:11:03.193Z,23.46
2018-05-23T09:12:03.177Z,23.97
2018-05-23T09:13:03.174Z,24.19
2018-05-23T09:14:03.181Z,24.29
2018-05-23T09:15:03.167Z,24.32
2018-05-23T09:16:03.161Z,24.27
2018-05-23T09:17:03.155Z,24.26
2018-05-23T09:18:03.152Z,24.37
2018-05-23T09:19:03.142Z,24.35
2018-05-23T09:20:03.143Z,24.42
2018-05-23T09:21:03.139Z,24.49
2018-05-23T09:22:03.142Z,24.80
2018-05-23T09:23:03.126Z,24.75
2018-05-23T09:24:03.126Z,24.69
2018-05-23T09:25:03.123Z,24.26
2018-05-23T09:26:03.116Z,24.22
2018-05-23T09:27:03.113Z,23.68
2018-05-23T09:28:03.112Z,23.77
2018-05-23T09:29:03.105Z,23.79
2018-05-23T09:30:03.100Z,24.22
2018-05-23T09:31:03.096Z,24.17
2018-05-23T09:32:03.097Z,24.20
2018-05-23T09:33:03.089Z,24.23
2018-05-23T09:34:03.085Z,24.44
2018-05-23T09:35:03.075Z,24.53
2018-05-23T09:36:03.078Z,24.56
2018-05-23T09:37:03.086Z,24.64
2018-05-23T09:38:03.076Z,24.61
2018-05-23T09:39:03.060Z,24.47
2018-05-23T09:40:03.059Z,23.80
2018-05-23T09:41:03.078Z,23.82
2018-05-23T09:42:03.050Z,24.16
2018-05-23T09:43:03.047Z,24.38
2018-05-23T09:44:03.046Z,24.49
2018-05-23T09:45:03.121Z,24.44
2018-05-23T09:46:03.033Z,24.31
2018-05-23T09:47:03.032Z,24.26
2018-05-23T09:48:03.028Z,24.05
2018-05-23T09:49:03.029Z,24.23
2018-05-23T09:50:03.033Z,24.34
2018-05-23T09:51:03.014Z,24.59
2018-05-23T09:52:03.012Z,24.64
2018-05-23T09:53:03.011Z,24.63
2018-05-23T09:54:03.002Z,24.63
2018-05-23T09:55:03.037Z,24.67
2018-05-23T09:56:03.016Z,24.50
2018-05-23T09:57:03.001Z,24.49
2018-05-23T09:58:02.998Z,24.53
2018-05-23T09:59:02.992Z,24.80
2018-05-23T10:00:02.986Z,25.07
2018-05-23T10:01:02.983Z,25.16
2018-05-23T10:02:02.983Z,25.34
2018-05-23T10:03:02.979Z,25.34
2018-05-23T10:04:02.977Z,25.12
2018-05-23T10:05:02.987Z,25.01
2018-05-23T10:06:02.970Z,25.06
2018-05-23T10:07:02.966Z,25.09
2018-05-23T10:08:02.967Z,25.28
2018-05-23T10:09:02.970Z,25.64
2018-05-23T10:10:02.960Z,25.90
2018-05-23T10:11:02.964Z,25.82
2018-05-23T10:12:02.956Z,25.84
2018-05-23T10:13:02.957Z,25.79
2018-05-23T10:14:02.961Z,25.43
2018-05-23T10:15:02.958Z,25.25
2018-05-23T10:16:02.950Z,25.07
2018-05-23T10:17:02.958Z,25.30
2018-05-23T10:18:02.951Z,25.37
2018-05-23T10:19:02.938Z,25.37
2018-05-23T10:20:02.939Z,25.35
2018-05-23T10:21:02.939Z,25.28
2018-05-23T10:22:02.941Z,25.17
2018-05-23T10:23:02.938Z,25.06
2018-05-23T10:24:02.935Z,24.88
2018-05-23T10:25:02.934Z,25.10
2018-05-23T10:26:02.932Z,25.46
2018-05-23T10:27:02.926Z,25.72
2018-05-23T10:28:02.926Z,26.21
2018-05-23T10:29:02.923Z,26.27
2018-05-23T10:30:02.920Z,26.35
2018-05-23T10:31:02.920Z,26.31
2018-05-23T10:32:02.919Z,26.31
2018-05-23T10:33:02.916Z,26.21
2018-05-23T10:34:02.916Z,26.27
2018-05-23T10:35:02.917Z,25.79
2018-05-23T10:36:02.912Z,25.83
2018-05-23T10:37:02.913Z,25.93
2018-05-23T10:38:02.910Z,25.99
2018-05-23T10:39:03.000Z,25.87
2018-05-23T10:40:02.907Z,25.84
2018-05-23T10:41:02.914Z,25.98
2018-05-23T10:42:02.906Z,25.93
2018-05-23T10:43:02.909Z,25.82
2018-05-23T10:44:02.904Z,25.89
2018-05-23T10:45:02.913Z,25.87
2018-05-23T10:46:02.907Z,25.83
2018-05-23T10:47:02.923Z,25.97
2018-05-23T10:48:02.897Z,25.97
2018-05-23T10:49:02.903Z,26.05
2018-05-23T10:50:02.897Z,25.97
2018-05-23T10:51:02.897Z,25.99
2018-05-23T10:52:02.964Z,25.89
2018-05-23T10:53:02.897Z,25.77
2018-05-23T10:54:02.895Z,25.59
2018-05-23T10:55:02.902Z,25.59
2018-05-23T10:56:02.894Z,25.38
2018-05-23T10:57:02.930Z,25.79
2018-05-23T10:58:02.888Z,25.77
2018-05-23T10:59:02.897Z,25.64
2018-05-23T11:00:02.991Z,26.01
2018-05-23T11:01:02.898Z,26.50
2018-05-23T11:02:02.894Z,26.87
2018-05-23T11:03:02.941Z,26.95
2018-05-23T11:04:02.888Z,27.06
2018-05-23T11:05:02.894Z,27.05
2018-05-23T11:06:02.896Z,26.57
2018-05-23T11:07:02.891Z,26.79
2018-05-23T11:08:02.900Z,26.40
2018-05-23T11:09:03.096Z,26.40
2018-05-23T11:10:02.908Z,26.37
2018-05-23T11:11:02.903Z,26.35
2018-05-23T11:12:02.910Z,26.50
2018-05-23T11:13:02.908Z,26.87
2018-05-23T11:14:02.907Z,27.28
2018-05-23T11:15:02.990Z,27.23
2018-05-23T11:16:02.910Z,27.14
2018-05-23T11:17:02.913Z,27.10
2018-05-23T11:18:02.913Z,27.13
2018-05-23T11:19:02.933Z,27.09
2018-05-23T11:20:02.937Z,27.28
2018-05-23T11:21:02.955Z,26.95
2018-05-23T11:22:02.955Z,26.74
2018-05-23T11:23:02.970Z,27.14
2018-05-23T11:24:02.932Z,27.41
2018-05-23T11:25:02.949Z,27.04
2018-05-23T11:26:02.947Z,26.98
2018-05-23T11:27:02.949Z,27.31
2018-05-23T11:28:02.955Z,27.39
2018-05-23T11:29:02.951Z,26.55
2018-05-23T11:30:02.972Z,26.74
2018-05-23T11:31:02.967Z,27.14
2018-05-23T11:32:02.974Z,27.50
2018-05-23T11:33:02.980Z,28.03
2018-05-23T11:34:02.980Z,28.19
2018-05-23T11:35:02.990Z,28.51
2018-05-23T11:36:02.990Z,28.70
2018-05-23T11:37:02.994Z,28.65
2018-05-23T11:38:03.000Z,28.29
2018-05-23T11:39:02.997Z,28.21
2018-05-23T11:40:03.010Z,28.14
2018-05-23T11:41:03.019Z,28.31
2018-05-23T11:42:03.019Z,28.19
2018-05-23T11:43:03.022Z,28.41
2018-05-23T11:44:03.034Z,28.77
2018-05-23T11:45:03.036Z,28.78
2018-05-23T11:46:03.047Z,28.07
2018-05-23T11:47:03.044Z,28.23
2018-05-23T11:48:03.054Z,28.33
2018-05-23T11:49:03.060Z,28.22
2018-05-23T11:50:03.073Z,28.46
2018-05-23T11:51:03.070Z,28.43
2018-05-23T11:52:03.079Z,28.66
2018-05-23T11:53:03.083Z,28.96
2018-05-23T11:54:03.089Z,29.28
2018-05-23T11:55:03.095Z,29.41
2018-05-23T11:56:03.098Z,28.53
2018-05-23T11:57:03.099Z,27.73
2018-05-23T11:58:03.111Z,27.39
2018-05-23T11:59:03.117Z,27.01
2018-05-23T12:00:03.124Z,27.53
2018-05-23T12:01:03.128Z,27.98
2018-05-23T12:02:03.142Z,28.54
2018-05-23T12:03:03.137Z,28.54
2018-05-23T12:04:03.147Z,28.90
2018-05-23T12:05:03.147Z,29.25
2018-05-23T12:06:03.156Z,29.49
2018-05-23T12:07:03.153Z,29.00
2018-05-23T12:08:03.156Z,28.47
2018-05-23T12:09:03.168Z,28.17
2018-05-23T12:10:03.173Z,27.69
2018-05-23T12:11:03.172Z,27.50
2018-05-23T12:12:03.172Z,27.31
2018-05-23T12:13:03.179Z,26.99
2018-05-23T12:14:03.178Z,26.79
2018-05-23T12:15:03.185Z,26.36
2018-05-23T12:16:03.184Z,25.75
2018-05-23T12:17:03.182Z,25.46
2018-05-23T12:18:03.188Z,25.49
2018-05-23T12:19:03.185Z,25.80
2018-05-23T12:20:03.183Z,25.82
2018-05-23T12:21:03.191Z,25.94
2018-05-23T12:22:03.190Z,26.25
2018-05-23T12:23:03.182Z,27.13
2018-05-23T12:24:03.185Z,27.91
2018-05-23T12:25:03.198Z,28.06
2018-05-23T12:26:03.181Z,28.22
2018-05-23T12:27:03.192Z,28.56
2018-05-23T12:28:03.188Z,28.90
2018-05-23T12:29:03.188Z,29.06
2018-05-23T12:30:03.195Z,29.53
2018-05-23T12:31:03.196Z,29.70
2018-05-23T12:32:03.196Z,29.25
2018-05-23T12:33:03.201Z,29.18
2018-05-23T12:34:03.198Z,29.40
2018-05-23T12:35:03.211Z,29.65
2018-05-23T12:36:03.217Z,30.08
2018-05-23T12:37:03.207Z,29.78
2018-05-23T12:38:03.220Z,29.41
2018-05-23T12:39:03.227Z,29.55
2018-05-23T12:40:03.233Z,29.57
2018-05-23T12:41:03.259Z,28.62
2018-05-23T12:42:03.243Z,27.95
2018-05-23T12:43:03.259Z,27.39
2018-05-23T12:44:03.249Z,26.84
2018-05-23T12:45:03.255Z,26.67
2018-05-23T12:46:03.256Z,26.09
2018-05-23T12:47:03.262Z,26.08
2018-05-23T12:48:03.268Z,26.08
2018-05-23T12:49:03.268Z,25.93
2018-05-23T12:50:03.266Z,25.86
2018-05-23T12:51:03.271Z,25.86
2018-05-23T12:52:03.273Z,25.82